Terminal Aerodrome Forecast
Issued by NWS

Home | Current Version | Previous Version | Text Only | Print | Product List | Glossary Off
Versions: 1 2 3 4 5 6 7 8 9 10 11 12 13 14 15 16 17 18 19 20 21 22 23 24 25 26 27 28 29 30

000
FTUS43 KLOT 232152 AAC
TAFDPA
TAF AMD
KDPA 232152Z 2322/2418 18007KT P6SM VCTS SCT040CB BKN250
     FM232300 33015G25KT 2SM +TSRA BKN015 OVC040CB
     FM240000 36008KT P6SM SCT040 BKN250
     FM240100 27015G25KT 3SM TSRA SCT015 OVC040CB
     FM240200 VRB06KT 6SM -SHRA VCTS BKN040CB
     FM240330 18006KT P6SM SCT030 BKN250
     FM241000 18009KT 3SM TSRA OVC025CB
     FM241300 21012G19KT P6SM SCT040=

USA.gov is the U.S. government's official web portal to all federal, state and local government web resources and services.